sensor_id;sensor_type;location;lat;lon;timestamp;P1;durP1;ratioP1;P2;durP2;ratioP2
51296;SDS011;37380;45.186;9.792;2023-11-19T15:19:55;14.73;;;13.10;;
51296;SDS011;37380;45.186;9.792;2023-11-19T15:25:25;21.50;;;12.50;;
51296;SDS011;37380;45.186;9.792;2023-11-19T15:27:52;17.67;;;14.48;;
51296;SDS011;37380;45.186;9.792;2023-11-19T15:30:19;19.10;;;12.57;;
51296;SDS011;37380;45.186;9.792;2023-11-19T15:32:46;18.48;;;14.52;;
51296;SDS011;37380;45.186;9.792;2023-11-19T15:35:14;18.52;;;13.65;;
51296;SDS011;37380;45.186;9.792;2023-11-19T15:37:41;17.58;;;15.38;;
51296;SDS011;37380;45.186;9.792;2023-11-19T15:40:11;19.02;;;14.43;;
51296;SDS011;37380;45.186;9.792;2023-11-19T15:42:40;15.70;;;13.73;;
51296;SDS011;37380;45.186;9.792;2023-11-19T15:45:08;16.83;;;15.02;;
51296;SDS011;37380;45.186;9.792;2023-11-19T15:47:35;19.70;;;13.18;;
51296;SDS011;37380;45.186;9.792;2023-11-19T15:50:03;20.00;;;14.82;;
51296;SDS011;37380;45.186;9.792;2023-11-19T15:52:30;15.32;;;13.43;;
51296;SDS011;37380;45.186;9.792;2023-11-19T15:54:58;25.52;;;15.07;;
51296;SDS011;37380;45.186;9.792;2023-11-19T15:57:26;17.33;;;13.10;;
51296;SDS011;37380;45.186;9.792;2023-11-19T15:59:53;18.88;;;14.82;;
51296;SDS011;37380;45.186;9.792;2023-11-19T16:02:21;14.77;;;13.13;;
51296;SDS011;37380;45.186;9.792;2023-11-19T16:04:48;23.48;;;15.73;;
51296;SDS011;37380;45.186;9.792;2023-11-19T16:07:17;16.80;;;14.25;;
51296;SDS011;37380;45.186;9.792;2023-11-19T16:09:44;21.73;;;16.70;;
51296;SDS011;37380;45.186;9.792;2023-11-19T16:12:11;22.15;;;14.95;;
51296;SDS011;37380;45.186;9.792;2023-11-19T16:14:40;29.52;;;16.95;;
51296;SDS011;37380;45.186;9.792;2023-11-19T16:17:08;17.83;;;13.90;;
51296;SDS011;37380;45.186;9.792;2023-11-19T16:22:38;50.03;;;38.50;;
51296;SDS011;37380;45.186;9.792;2023-11-19T16:28:07;31.48;;;25.17;;
51296;SDS011;37380;45.186;9.792;2023-11-19T16:30:35;40.85;;;27.55;;
51296;SDS011;37380;45.186;9.792;2023-11-19T16:33:02;39.47;;;23.60;;
51296;SDS011;37380;45.186;9.792;2023-11-19T16:35:32;29.83;;;20.48;;
51296;SDS011;37380;45.186;9.792;2023-11-19T16:38:01;30.92;;;22.77;;
51296;SDS011;37380;45.186;9.792;2023-11-19T16:40:28;30.90;;;22.75;;
51296;SDS011;37380;45.186;9.792;2023-11-19T16:42:55;27.00;;;19.73;;
51296;SDS011;37380;45.186;9.792;2023-11-19T16:45:23;28.30;;;20.80;;
51296;SDS011;37380;45.186;9.792;2023-11-19T16:47:50;33.30;;;23.27;;
51296;SDS011;37380;45.186;9.792;2023-11-19T16:50:19;27.77;;;21.35;;
51296;SDS011;37380;45.186;9.792;2023-11-19T16:52:46;31.15;;;20.92;;
51296;SDS011;37380;45.186;9.792;2023-11-19T16:55:14;30.67;;;23.25;;
51296;SDS011;37380;45.186;9.792;2023-11-19T16:57:42;31.92;;;23.58;;
51296;SDS011;37380;45.186;9.792;2023-11-19T17:00:12;42.67;;;24.38;;
51296;SDS011;37380;45.186;9.792;2023-11-19T17:02:39;32.60;;;23.30;;
51296;SDS011;37380;45.186;9.792;2023-11-19T17:05:11;51.30;;;24.35;;
51296;SDS011;37380;45.186;9.792;2023-11-19T17:07:40;46.53;;;25.55;;
51296;SDS011;37380;45.186;9.792;2023-11-19T17:10:07;36.50;;;23.23;;
51296;SDS011;37380;45.186;9.792;2023-11-19T17:12:36;37.65;;;21.08;;
51296;SDS011;37380;45.186;9.792;2023-11-19T17:15:03;26.30;;;21.08;;
51296;SDS011;37380;45.186;9.792;2023-11-19T17:17:35;31.65;;;19.70;;
51296;SDS011;37380;45.186;9.792;2023-11-19T17:20:04;25.80;;;21.35;;
51296;SDS011;37380;45.186;9.792;2023-11-19T17:22:35;33.67;;;21.92;;
51296;SDS011;37380;45.186;9.792;2023-11-19T17:25:05;32.28;;;19.35;;
51296;SDS011;37380;45.186;9.792;2023-11-19T17:27:33;31.48;;;18.08;;
51296;SDS011;37380;45.186;9.792;2023-11-19T17:30:01;23.05;;;19.30;;
51296;SDS011;37380;45.186;9.792;2023-11-19T17:32:41;26.30;;;18.10;;
51296;SDS011;37380;45.186;9.792;2023-11-19T17:35:08;28.23;;;18.48;;
51296;SDS011;37380;45.186;9.792;2023-11-19T17:37:36;27.35;;;20.67;;
51296;SDS011;37380;45.186;9.792;2023-11-19T17:40:03;28.60;;;21.70;;
51296;SDS011;37380;45.186;9.792;2023-11-19T17:42:31;26.17;;;19.98;;
51296;SDS011;37380;45.186;9.792;2023-11-19T17:44:58;24.55;;;20.83;;
51296;SDS011;37380;45.186;9.792;2023-11-19T17:47:26;40.30;;;21.98;;
51296;SDS011;37380;45.186;9.792;2023-11-19T17:49:53;33.05;;;20.88;;
51296;SDS011;37380;45.186;9.792;2023-11-19T17:52:21;37.72;;;22.50;;
51296;SDS011;37380;45.186;9.792;2023-11-19T17:54:49;30.90;;;26.98;;
51296;SDS011;37380;45.186;9.792;2023-11-19T17:57:16;29.65;;;24.30;;
51296;SDS011;37380;45.186;9.792;2023-11-19T17:59:43;27.17;;;22.77;;
51296;SDS011;37380;45.186;9.792;2023-11-19T18:02:14;33.05;;;20.48;;
51296;SDS011;37380;45.186;9.792;2023-11-19T18:04:47;25.08;;;21.42;;
51296;SDS011;37380;45.186;9.792;2023-11-19T18:07:17;36.15;;;27.77;;
51296;SDS011;37380;45.186;9.792;2023-11-19T18:09:45;56.67;;;28.10;;
51296;SDS011;37380;45.186;9.792;2023-11-19T18:12:12;50.45;;;29.67;;
51296;SDS011;37380;45.186;9.792;2023-11-19T18:14:43;34.95;;;25.20;;
51296;SDS011;37380;45.186;9.792;2023-11-19T18:17:13;37.28;;;26.38;;
51296;SDS011;37380;45.186;9.792;2023-11-19T18:19:42;39.25;;;27.73;;
51296;SDS011;37380;45.186;9.792;2023-11-19T18:22:09;35.13;;;28.42;;
51296;SDS011;37380;45.186;9.792;2023-11-19T18:24:36;38.85;;;26.23;;
51296;SDS011;37380;45.186;9.792;2023-11-19T18:27:04;37.88;;;24.40;;
51296;SDS011;37380;45.186;9.792;2023-11-19T18:29:34;44.15;;;24.10;;
51296;SDS011;37380;45.186;9.792;2023-11-19T18:32:02;31.27;;;24.40;;
51296;SDS011;37380;45.186;9.792;2023-11-19T18:34:31;40.50;;;22.83;;
51296;SDS011;37380;45.186;9.792;2023-11-19T18:36:58;31.77;;;23.50;;
51296;SDS011;37380;45.186;9.792;2023-11-19T18:39:25;39.17;;;24.25;;
51296;SDS011;37380;45.186;9.792;2023-11-19T18:41:53;31.38;;;21.58;;
51296;SDS011;37380;45.186;9.792;2023-11-19T18:44:20;34.30;;;23.75;;
51296;SDS011;37380;45.186;9.792;2023-11-19T18:46:47;41.08;;;23.98;;
51296;SDS011;37380;45.186;9.792;2023-11-19T18:49:14;30.83;;;23.80;;
51296;SDS011;37380;45.186;9.792;2023-11-19T18:51:41;46.63;;;24.75;;
51296;SDS011;37380;45.186;9.792;2023-11-19T18:54:08;28.08;;;23.70;;
51296;SDS011;37380;45.186;9.792;2023-11-19T18:56:35;31.77;;;24.67;;
51296;SDS011;37380;45.186;9.792;2023-11-19T18:59:03;36.50;;;28.63;;
51296;SDS011;37380;45.186;9.792;2023-11-19T19:01:32;39.58;;;29.63;;
51296;SDS011;37380;45.186;9.792;2023-11-19T19:03:59;39.10;;;28.45;;
51296;SDS011;37380;45.186;9.792;2023-11-19T19:06:27;53.50;;;33.72;;
51296;SDS011;37380;45.186;9.792;2023-11-19T19:09:01;32.90;;;26.13;;
51296;SDS011;37380;45.186;9.792;2023-11-19T19:11:37;45.22;;;27.40;;
51296;SDS011;37380;45.186;9.792;2023-11-19T19:16:44;24.50;;;21.63;;
51296;SDS011;37380;45.186;9.792;2023-11-19T19:19:11;30.15;;;22.23;;
51296;SDS011;37380;45.186;9.792;2023-11-19T19:21:38;29.95;;;24.00;;
51296;SDS011;37380;45.186;9.792;2023-11-19T19:24:06;26.42;;;23.65;;
51296;SDS011;37380;45.186;9.792;2023-11-19T19:26:38;31.58;;;22.80;;
51296;SDS011;37380;45.186;9.792;2023-11-19T19:29:10;38.40;;;24.85;;
51296;SDS011;37380;45.186;9.792;2023-11-19T19:31:43;32.63;;;25.00;;
51296;SDS011;37380;45.186;9.792;2023-11-19T19:34:12;32.33;;;26.15;;
51296;SDS011;37380;45.186;9.792;2023-11-19T19:36:39;31.95;;;24.38;;
51296;SDS011;37380;45.186;9.792;2023-11-19T19:39:06;29.65;;;24.73;;
51296;SDS011;37380;45.186;9.792;2023-11-19T19:41:41;31.70;;;23.38;;
51296;SDS011;37380;45.186;9.792;2023-11-19T19:44:08;35.03;;;25.90;;
51296;SDS011;37380;45.186;9.792;2023-11-19T19:46:36;30.77;;;23.20;;
51296;SDS011;37380;45.186;9.792;2023-11-19T19:49:03;37.15;;;22.58;;
51296;SDS011;37380;45.186;9.792;2023-11-19T19:51:32;35.20;;;24.65;;
51296;SDS011;37380;45.186;9.792;2023-11-19T19:53:59;33.90;;;23.52;;
51296;SDS011;37380;45.186;9.792;2023-11-19T19:56:26;37.00;;;24.67;;
51296;SDS011;37380;45.186;9.792;2023-11-19T19:58:53;33.92;;;24.13;;
51296;SDS011;37380;45.186;9.792;2023-11-19T20:01:20;31.17;;;22.73;;
51296;SDS011;37380;45.186;9.792;2023-11-19T20:03:47;25.92;;;23.23;;
51296;SDS011;37380;45.186;9.792;2023-11-19T20:06:15;42.17;;;25.42;;
51296;SDS011;37380;45.186;9.792;2023-11-19T20:08:42;30.05;;;23.75;;
51296;SDS011;37380;45.186;9.792;2023-11-19T20:11:10;42.60;;;26.15;;
51296;SDS011;37380;45.186;9.792;2023-11-19T20:13:38;30.50;;;24.25;;
51296;SDS011;37380;45.186;9.792;2023-11-19T20:16:05;30.65;;;23.45;;
51296;SDS011;37380;45.186;9.792;2023-11-19T20:18:32;36.63;;;22.27;;
51296;SDS011;37380;45.186;9.792;2023-11-19T20:21:00;32.95;;;23.10;;
51296;SDS011;37380;45.186;9.792;2023-11-19T20:23:34;28.05;;;23.52;;
51296;SDS011;37380;45.186;9.792;2023-11-19T20:26:02;33.67;;;23.25;;
51296;SDS011;37380;45.186;9.792;2023-11-19T20:28:29;40.20;;;26.77;;
51296;SDS011;37380;45.186;9.792;2023-11-19T20:30:57;32.88;;;24.33;;
51296;SDS011;37380;45.186;9.792;2023-11-19T20:33:24;35.55;;;24.80;;
51296;SDS011;37380;45.186;9.792;2023-11-19T20:35:53;37.33;;;24.35;;
51296;SDS011;37380;45.186;9.792;2023-11-19T20:38:22;35.92;;;24.70;;
51296;SDS011;37380;45.186;9.792;2023-11-19T20:40:52;41.08;;;25.83;;
51296;SDS011;37380;45.186;9.792;2023-11-19T20:43:19;36.88;;;24.80;;
51296;SDS011;37380;45.186;9.792;2023-11-19T20:45:47;36.05;;;22.27;;
51296;SDS011;37380;45.186;9.792;2023-11-19T20:48:14;31.92;;;24.55;;
51296;SDS011;37380;45.186;9.792;2023-11-19T20:50:41;29.27;;;22.73;;
51296;SDS011;37380;45.186;9.792;2023-11-19T20:53:08;27.90;;;21.70;;
51296;SDS011;37380;45.186;9.792;2023-11-19T20:55:35;35.03;;;18.23;;
51296;SDS011;37380;45.186;9.792;2023-11-19T20:58:05;26.17;;;16.83;;
51296;SDS011;37380;45.186;9.792;2023-11-19T21:00:35;28.80;;;14.07;;
51296;SDS011;37380;45.186;9.792;2023-11-19T21:03:04;25.33;;;16.23;;
51296;SDS011;37380;45.186;9.792;2023-11-19T21:05:36;25.48;;;19.67;;
51296;SDS011;37380;45.186;9.792;2023-11-19T21:08:08;28.50;;;18.67;;
51296;SDS011;37380;45.186;9.792;2023-11-19T21:10:36;44.22;;;21.98;;
51296;SDS011;37380;45.186;9.792;2023-11-19T21:13:04;22.13;;;18.60;;
51296;SDS011;37380;45.186;9.792;2023-11-19T21:15:31;33.58;;;18.05;;
51296;SDS011;37380;45.186;9.792;2023-11-19T21:17:59;18.23;;;16.23;;
51296;SDS011;37380;45.186;9.792;2023-11-19T21:20:27;21.50;;;15.57;;
51296;SDS011;37380;45.186;9.792;2023-11-19T21:22:55;28.30;;;18.45;;
51296;SDS011;37380;45.186;9.792;2023-11-19T21:25:22;23.73;;;18.90;;
51296;SDS011;37380;45.186;9.792;2023-11-19T21:27:50;30.60;;;22.58;;
51296;SDS011;37380;45.186;9.792;2023-11-19T21:30:18;19.92;;;15.98;;
51296;SDS011;37380;45.186;9.792;2023-11-19T21:32:46;18.30;;;16.40;;
51296;SDS011;37380;45.186;9.792;2023-11-19T21:35:13;17.15;;;15.27;;
51296;SDS011;37380;45.186;9.792;2023-11-19T21:37:42;24.10;;;17.38;;
51296;SDS011;37380;45.186;9.792;2023-11-19T21:40:09;19.67;;;15.35;;
51296;SDS011;37380;45.186;9.792;2023-11-19T21:42:36;21.70;;;16.83;;
51296;SDS011;37380;45.186;9.792;2023-11-19T21:45:04;22.63;;;17.60;;
51296;SDS011;37380;45.186;9.792;2023-11-19T21:52:36;30.98;;;19.27;;
51296;SDS011;37380;45.186;9.792;2023-11-19T21:55:03;26.15;;;18.58;;
51296;SDS011;37380;45.186;9.792;2023-11-19T21:57:30;29.48;;;19.48;;
51296;SDS011;37380;45.186;9.792;2023-11-19T21:59:57;22.58;;;16.42;;
51296;SDS011;37380;45.186;9.792;2023-11-19T22:02:25;26.90;;;19.30;;
51296;SDS011;37380;45.186;9.792;2023-11-19T22:04:52;31.92;;;24.23;;
51296;SDS011;37380;45.186;9.792;2023-11-19T22:07:19;27.50;;;24.13;;
51296;SDS011;37380;45.186;9.792;2023-11-19T22:09:46;30.42;;;21.75;;
51296;SDS011;37380;45.186;9.792;2023-11-19T22:12:13;27.17;;;18.20;;
51296;SDS011;37380;45.186;9.792;2023-11-19T22:14:40;27.52;;;19.60;;
51296;SDS011;37380;45.186;9.792;2023-11-19T22:17:07;28.73;;;21.52;;
51296;SDS011;37380;45.186;9.792;2023-11-19T22:19:35;38.33;;;20.83;;
51296;SDS011;37380;45.186;9.792;2023-11-19T22:22:02;27.40;;;20.35;;
51296;SDS011;37380;45.186;9.792;2023-11-19T22:24:29;29.33;;;20.25;;
51296;SDS011;37380;45.186;9.792;2023-11-19T22:26:57;24.50;;;19.88;;
51296;SDS011;37380;45.186;9.792;2023-11-19T22:29:24;31.02;;;20.45;;
51296;SDS011;37380;45.186;9.792;2023-11-19T22:31:51;27.85;;;21.73;;
51296;SDS011;37380;45.186;9.792;2023-11-19T22:34:19;32.13;;;23.65;;
51296;SDS011;37380;45.186;9.792;2023-11-19T22:36:46;26.30;;;20.02;;
51296;SDS011;37380;45.186;9.792;2023-11-19T22:39:13;26.88;;;21.88;;
51296;SDS011;37380;45.186;9.792;2023-11-19T22:41:40;42.13;;;23.58;;
51296;SDS011;37380;45.186;9.792;2023-11-19T22:44:07;31.67;;;24.58;;
51296;SDS011;37380;45.186;9.792;2023-11-19T22:46:34;34.08;;;26.80;;
51296;SDS011;37380;45.186;9.792;2023-11-19T22:49:04;32.75;;;24.00;;
51296;SDS011;37380;45.186;9.792;2023-11-19T22:51:31;34.83;;;21.48;;
51296;SDS011;37380;45.186;9.792;2023-11-19T22:54:00;29.08;;;22.77;;
51296;SDS011;37380;45.186;9.792;2023-11-19T22:56:27;32.30;;;24.65;;
51296;SDS011;37380;45.186;9.792;2023-11-19T22:58:54;28.75;;;20.08;;
51296;SDS011;37380;45.186;9.792;2023-11-19T23:01:21;26.48;;;19.80;;
51296;SDS011;37380;45.186;9.792;2023-11-19T23:03:49;27.92;;;20.70;;
51296;SDS011;37380;45.186;9.792;2023-11-19T23:06:16;26.92;;;21.58;;
51296;SDS011;37380;45.186;9.792;2023-11-19T23:08:43;49.13;;;23.25;;
51296;SDS011;37380;45.186;9.792;2023-11-19T23:11:10;29.98;;;21.50;;
51296;SDS011;37380;45.186;9.792;2023-11-19T23:13:37;32.17;;;21.50;;
51296;SDS011;37380;45.186;9.792;2023-11-19T23:16:05;27.80;;;21.75;;
51296;SDS011;37380;45.186;9.792;2023-11-19T23:18:33;35.63;;;18.65;;
51296;SDS011;37380;45.186;9.792;2023-11-19T23:21:00;28.95;;;21.13;;
51296;SDS011;37380;45.186;9.792;2023-11-19T23:23:29;26.08;;;21.50;;
51296;SDS011;37380;45.186;9.792;2023-11-19T23:25:56;34.72;;;19.33;;
51296;SDS011;37380;45.186;9.792;2023-11-19T23:28:24;33.20;;;20.67;;
51296;SDS011;37380;45.186;9.792;2023-11-19T23:30:51;31.63;;;19.67;;
51296;SDS011;37380;45.186;9.792;2023-11-19T23:33:19;25.52;;;17.20;;
51296;SDS011;37380;45.186;9.792;2023-11-19T23:35:46;25.70;;;21.20;;
51296;SDS011;37380;45.186;9.792;2023-11-19T23:38:13;27.10;;;18.25;;
51296;SDS011;37380;45.186;9.792;2023-11-19T23:40:40;26.25;;;20.30;;
51296;SDS011;37380;45.186;9.792;2023-11-19T23:43:07;30.35;;;17.75;;
51296;SDS011;37380;45.186;9.792;2023-11-19T23:45:34;24.60;;;19.33;;
51296;SDS011;37380;45.186;9.792;2023-11-19T23:48:01;22.25;;;19.70;;
51296;SDS011;37380;45.186;9.792;2023-11-19T23:50:29;27.38;;;17.88;;
51296;SDS011;37380;45.186;9.792;2023-11-19T23:52:56;28.20;;;19.50;;
51296;SDS011;37380;45.186;9.792;2023-11-19T23:55:23;23.52;;;18.38;;
51296;SDS011;37380;45.186;9.792;2023-11-19T23:57:51;24.35;;;19.05;;
